Time;durP1;ratioP1;P1;durP2;ratioP2;P2;SDS_P1;SDS_P2;PMS_P1;PMS_P2;Temp;Humidity;BMP_temperature;BMP_pressure;BME280_temperature;BME280_humidity;BME280_pressure;Samples;Min_cycle;Max_cycle;Signal;HPM_P1;HPM_P2
2021/07/13 00:01:46;;;;;;;14.67;10.53;;;20.30;99.90;;;;;;4177804;28;20220;-77
2021/07/13 00:03:48;;;;;;;14.60;9.67;;;20.30;99.90;;;;;;4146327;28;20213;-76
2021/07/13 00:05:49;;;;;;;14.07;10.13;;;20.30;99.90;;;;;;4157370;28;20214;-77
2021/07/13 00:07:52;;;;;;;12.37;9.73;;;20.20;99.90;;;;;;4156162;28;20866;-77
2021/07/13 00:09:54;;;;;;;13.33;10.07;;;20.20;99.90;;;;;;4160325;28;20910;-77
2021/07/13 00:11:58;;;;;;;13.73;10.00;;;20.20;99.90;;;;;;4159991;28;20223;-77
2021/07/13 00:14:00;;;;;;;13.37;10.03;;;20.10;99.90;;;;;;4160060;28;20281;-77
2021/07/13 00:16:02;;;;;;;13.07;9.53;;;20.10;99.90;;;;;;4164534;28;20262;-76
2021/07/13 00:18:05;;;;;;;13.13;9.83;;;20.10;99.90;;;;;;4157396;28;20238;-77
2021/07/13 00:20:08;;;;;;;14.20;9.97;;;20.10;99.90;;;;;;4160422;28;20235;-78
2021/07/13 00:22:10;;;;;;;14.07;9.73;;;20.00;99.90;;;;;;4173382;28;20274;-77
2021/07/13 00:24:12;;;;;;;14.97;10.43;;;20.00;99.90;;;;;;4171271;28;20208;-77
2021/07/13 00:26:15;;;;;;;13.83;10.60;;;20.00;99.90;;;;;;4177798;28;20238;-78
2021/07/13 00:28:18;;;;;;;13.73;9.97;;;20.00;99.90;;;;;;4164328;28;20211;-78
2021/07/13 00:30:21;;;;;;;13.83;10.67;;;20.00;99.90;;;;;;4163350;28;20241;-77
2021/07/13 00:32:23;;;;;;;14.90;10.70;;;19.90;99.90;;;;;;4162193;28;20209;-78
2021/07/13 00:34:24;;;;;;;13.70;10.30;;;19.90;99.90;;;;;;4172173;28;20268;-78
2021/07/13 00:36:27;;;;;;;13.27;10.30;;;19.90;99.90;;;;;;4176126;28;20295;-77
2021/07/13 00:38:28;;;;;;;13.83;9.50;;;19.90;99.90;;;;;;4167241;28;20207;-78
2021/07/13 00:40:30;;;;;;;13.83;10.50;;;19.80;99.90;;;;;;4161903;28;20645;-78
2021/07/13 00:42:32;;;;;;;13.80;10.27;;;19.80;99.90;;;;;;4156517;28;20205;-78
2021/07/13 00:44:35;;;;;;;13.70;10.47;;;19.80;99.90;;;;;;4162608;28;20202;-78
2021/07/13 00:46:46;;;;;;;13.47;10.30;;;19.70;99.90;;;;;;4155109;28;20256;-78
2021/07/13 00:48:48;;;;;;;13.63;9.97;;;19.70;99.90;;;;;;4175677;28;20295;-78
2021/07/13 00:50:51;;;;;;;15.60;10.70;;;19.70;99.90;;;;;;4182049;28;20204;-78
2021/07/13 00:52:53;;;;;;;14.20;10.50;;;19.60;99.90;;;;;;4182639;28;20697;-78
2021/07/13 00:54:56;;;;;;;14.13;10.40;;;19.60;99.90;;;;;;4174023;28;20212;-78
2021/07/13 00:56:58;;;;;;;15.27;10.60;;;19.60;99.90;;;;;;4155206;28;20271;-78
2021/07/13 00:59:00;;;;;;;13.97;10.27;;;19.60;99.90;;;;;;4165782;28;20229;-78
2021/07/13 01:01:03;;;;;;;15.53;11.53;;;19.50;99.90;;;;;;4159747;28;20217;-77
2021/07/13 01:03:06;;;;;;;14.10;10.27;;;19.50;99.90;;;;;;4168761;28;20675;-77
2021/07/13 01:05:12;;;;;;;16.40;10.37;;;19.50;99.90;;;;;;4154499;28;20208;-77
2021/07/13 01:07:21;;;;;;;15.03;11.07;;;19.50;99.90;;;;;;4162642;28;20250;-77
2021/07/13 01:09:34;;;;;;;14.27;10.43;;;19.40;99.90;;;;;;4169960;28;20243;-78
2021/07/13 01:11:47;;;;;;;14.90;10.00;;;19.40;99.90;;;;;;4182575;28;20207;-77
2021/07/13 01:13:57;;;;;;;14.37;10.20;;;19.40;99.90;;;;;;4175795;28;20239;-78
2021/07/13 01:16:07;;;;;;;14.60;10.77;;;19.40;99.90;;;;;;4168263;28;20746;-78
2021/07/13 01:18:17;;;;;;;13.27;9.77;;;19.40;99.90;;;;;;4171046;28;20236;-77
2021/07/13 01:20:55;;;;;;;14.97;9.93;;;19.30;99.90;;;;;;4153863;28;20232;-77
2021/07/13 01:23:08;;;;;;;13.73;10.50;;;19.30;99.90;;;;;;4151896;28;20215;-78
2021/07/13 01:25:12;;;;;;;15.53;10.27;;;19.30;99.90;;;;;;4158563;28;20241;-78
2021/07/13 01:27:45;;;;;;;15.10;9.93;;;19.30;99.90;;;;;;4167028;28;20256;-77
2021/07/13 01:29:49;;;;;;;14.30;10.23;;;19.30;99.90;;;;;;4171848;28;20292;-77
2021/07/13 01:31:51;;;;;;;13.97;10.33;;;19.20;99.90;;;;;;4171429;28;20219;-78
2021/07/13 01:34:00;;;;;;;13.20;10.03;;;19.20;99.90;;;;;;4170466;28;20212;-78
2021/07/13 01:36:05;;;;;;;13.90;9.90;;;19.20;99.90;;;;;;4174446;28;20226;-77
2021/07/13 01:38:09;;;;;;;12.83;9.70;;;19.10;99.90;;;;;;4172393;28;20223;-77
2021/07/13 01:40:12;;;;;;;14.13;9.60;;;19.10;99.90;;;;;;4169774;28;20269;-78
2021/07/13 01:42:14;;;;;;;12.23;9.40;;;19.10;99.90;;;;;;4169656;28;20261;-78
2021/07/13 01:44:18;;;;;;;14.27;10.00;;;19.10;99.90;;;;;;4164038;28;20216;-78
2021/07/13 01:46:23;;;;;;;13.20;9.80;;;19.10;99.90;;;;;;4171097;28;20210;-78
2021/07/13 01:48:28;;;;;;;12.60;9.40;;;19.00;99.90;;;;;;4168531;28;20205;-78
2021/07/13 01:50:32;;;;;;;15.47;9.70;;;19.00;99.90;;;;;;4170243;28;20238;-78
2021/07/13 01:52:36;;;;;;;13.03;9.30;;;19.00;99.90;;;;;;4174787;28;20665;-78
2021/07/13 01:54:40;;;;;;;12.00;9.13;;;19.00;99.90;;;;;;4174183;28;20286;-75
2021/07/13 01:56:44;;;;;;;12.60;9.17;;;18.90;99.90;;;;;;4171321;28;20212;-75
2021/07/13 01:58:47;;;;;;;13.53;9.93;;;18.90;99.90;;;;;;4171003;28;20206;-75
2021/07/13 02:00:50;;;;;;;12.97;9.50;;;18.90;99.90;;;;;;4166277;28;20253;-77
2021/07/13 02:02:54;;;;;;;11.80;9.10;;;18.90;99.90;;;;;;4174411;28;20267;-78
2021/07/13 02:04:58;;;;;;;13.83;9.30;;;18.90;99.90;;;;;;4174033;28;20199;-77
2021/07/13 02:07:01;;;;;;;13.40;9.40;;;18.90;99.90;;;;;;4163027;28;20212;-77
2021/07/13 02:09:07;;;;;;;13.63;9.27;;;18.90;99.90;;;;;;4175381;28;20563;-77
2021/07/13 02:11:10;;;;;;;13.67;8.77;;;18.80;99.90;;;;;;4181089;28;20201;-77
2021/07/13 02:13:12;;;;;;;11.73;8.73;;;18.80;99.90;;;;;;4167672;28;20206;-77
2021/07/13 02:15:14;;;;;;;12.23;9.07;;;18.80;99.90;;;;;;4177447;28;20203;-78
2021/07/13 02:17:16;;;;;;;12.87;9.00;;;18.80;99.90;;;;;;4175887;28;20235;-77
2021/07/13 02:19:21;;;;;;;11.27;8.30;;;18.80;99.90;;;;;;4165786;28;20227;-77
2021/07/13 02:21:23;;;;;;;11.87;8.53;;;18.70;99.90;;;;;;4162676;28;20227;-77
2021/07/13 02:23:24;;;;;;;11.37;8.20;;;18.70;99.90;;;;;;4170180;28;20272;-77
2021/07/13 02:25:26;;;;;;;12.70;8.80;;;18.70;99.90;;;;;;4176641;28;20593;-77
2021/07/13 02:27:31;;;;;;;10.97;8.80;;;18.70;99.90;;;;;;4153286;28;20213;-76
2021/07/13 02:29:37;;;;;;;13.47;9.03;;;18.70;99.90;;;;;;4164766;28;20241;-77
2021/07/13 02:31:44;;;;;;;10.17;7.90;;;18.70;99.90;;;;;;4164312;28;20664;-77
2021/07/13 02:33:50;;;;;;;11.53;8.77;;;18.70;99.90;;;;;;4166062;28;20216;-76
2021/07/13 02:35:59;;;;;;;13.70;8.93;;;18.60;99.90;;;;;;4157541;28;20219;-77
2021/07/13 02:38:02;;;;;;;12.57;8.77;;;18.60;99.90;;;;;;4159206;28;20582;-77
2021/07/13 02:40:06;;;;;;;11.17;8.13;;;18.60;99.90;;;;;;4171171;28;20718;-76
2021/07/13 02:42:08;;;;;;;11.03;8.20;;;18.60;99.90;;;;;;4171418;28;20219;-76
2021/07/13 02:44:11;;;;;;;11.27;7.73;;;18.60;99.90;;;;;;4154468;28;20664;-76
2021/07/13 02:46:15;;;;;;;10.17;7.97;;;18.50;99.90;;;;;;4163907;28;20215;-77
2021/07/13 02:48:17;;;;;;;11.50;7.90;;;18.50;99.90;;;;;;4157824;28;20203;-76
2021/07/13 02:50:19;;;;;;;13.03;8.23;;;18.50;99.90;;;;;;4152029;28;20232;-76
2021/07/13 02:52:25;;;;;;;14.47;7.90;;;18.50;99.90;;;;;;4156042;28;20218;-77
2021/07/13 02:54:30;;;;;;;11.13;7.90;;;18.50;99.90;;;;;;4154247;28;20208;-77
2021/07/13 02:56:33;;;;;;;12.20;8.43;;;18.50;99.90;;;;;;4176255;28;20759;-77
2021/07/13 02:58:36;;;;;;;11.50;7.80;;;18.50;99.90;;;;;;4176871;28;20317;-77
2021/07/13 03:00:38;;;;;;;11.30;8.07;;;18.40;99.90;;;;;;4155892;28;20208;-78
2021/07/13 03:02:43;;;;;;;10.27;7.87;;;18.40;99.90;;;;;;4160804;28;20265;-78
2021/07/13 03:04:46;;;;;;;10.67;7.77;;;18.40;99.90;;;;;;4161462;28;20700;-78
2021/07/13 03:06:48;;;;;;;10.20;7.87;;;18.40;99.90;;;;;;4157406;28;20865;-77
2021/07/13 03:08:51;;;;;;;11.30;8.40;;;18.40;99.90;;;;;;4157932;28;20284;-76
2021/07/13 03:10:56;;;;;;;11.40;8.23;;;18.40;99.90;;;;;;4161084;28;20208;-77
2021/07/13 03:12:59;;;;;;;11.10;7.57;;;18.30;99.90;;;;;;4160240;28;20254;-78
2021/07/13 03:15:02;;;;;;;9.83;7.90;;;18.30;99.90;;;;;;4162544;28;20218;-78
2021/07/13 03:17:04;;;;;;;10.13;7.50;;;18.30;99.90;;;;;;4163269;28;20233;-78
2021/07/13 03:19:06;;;;;;;9.53;7.70;;;18.30;99.90;;;;;;4160724;28;20245;-78
2021/07/13 03:21:10;;;;;;;9.77;7.33;;;18.30;99.90;;;;;;4162352;28;20222;-78
2021/07/13 03:23:12;;;;;;;10.27;7.80;;;18.30;99.90;;;;;;4169573;28;20268;-77
2021/07/13 03:25:18;;;;;;;10.27;7.40;;;18.30;99.90;;;;;;4180796;28;20566;-75
2021/07/13 03:27:22;;;;;;;11.70;7.67;;;18.20;99.90;;;;;;4155589;28;20215;-74
2021/07/13 03:29:24;;;;;;;9.70;7.20;;;18.20;99.90;;;;;;4157636;28;20226;-75
2021/07/13 03:31:27;;;;;;;11.10;7.77;;;18.30;99.90;;;;;;4161341;28;20203;-78
2021/07/13 03:33:29;;;;;;;9.07;7.30;;;18.20;99.90;;;;;;4161911;28;20213;-78
2021/07/13 03:35:32;;;;;;;9.23;6.97;;;18.20;99.90;;;;;;4161963;28;20207;-77
2021/07/13 03:37:34;;;;;;;10.27;7.50;;;18.20;99.90;;;;;;4159388;28;20273;-77
2021/07/13 03:39:36;;;;;;;9.60;7.50;;;18.20;99.90;;;;;;4178724;28;20287;-78
2021/07/13 03:41:39;;;;;;;10.10;7.53;;;18.20;99.90;;;;;;4180617;28;20210;-77
2021/07/13 03:43:41;;;;;;;10.17;7.40;;;18.20;99.90;;;;;;4164735;28;20202;-77
2021/07/13 03:45:43;;;;;;;9.70;7.27;;;18.20;99.90;;;;;;4159819;28;20211;-77
2021/07/13 03:47:50;;;;;;;9.63;6.97;;;18.20;99.90;;;;;;4157502;28;20215;-77
2021/07/13 03:49:52;;;;;;;11.27;7.83;;;18.20;99.90;;;;;;4159146;28;20641;-76
2021/07/13 03:51:55;;;;;;;11.50;7.27;;;18.20;99.90;;;;;;4161478;28;20633;-77
2021/07/13 03:53:56;;;;;;;11.20;6.93;;;18.20;99.90;;;;;;4162899;28;20678;-77
2021/07/13 03:55:58;;;;;;;9.67;7.47;;;18.20;99.90;;;;;;4162961;28;20211;-76
2021/07/13 03:58:01;;;;;;;9.13;7.00;;;18.20;99.90;;;;;;4160527;28;20226;-77
2021/07/13 04:00:05;;;;;;;10.50;7.40;;;18.20;99.90;;;;;;4162148;28;20231;-77
2021/07/13 04:02:10;;;;;;;8.60;6.70;;;18.20;99.90;;;;;;4160384;28;20214;-77
2021/07/13 04:04:11;;;;;;;7.70;6.57;;;18.20;99.90;;;;;;4163113;28;20263;-78
2021/07/13 04:06:13;;;;;;;7.20;6.03;;;18.20;99.90;;;;;;4161581;28;20218;-76
2021/07/13 04:08:15;;;;;;;8.73;6.50;;;18.20;99.90;;;;;;4157581;28;20651;-76
2021/07/13 04:10:17;;;;;;;8.50;6.60;;;18.20;99.90;;;;;;4160808;28;20231;-76
2021/07/13 04:12:19;;;;;;;9.90;7.10;;;18.20;99.90;;;;;;4162894;28;20219;-77
2021/07/13 04:14:22;;;;;;;8.50;6.67;;;18.20;99.90;;;;;;4172478;28;20210;-77
2021/07/13 04:16:24;;;;;;;7.80;6.40;;;18.20;99.90;;;;;;4175013;28;20272;-77
2021/07/13 04:18:26;;;;;;;8.70;6.37;;;18.30;99.90;;;;;;4172739;28;20281;-77
2021/07/13 04:20:27;;;;;;;7.83;6.40;;;18.30;99.90;;;;;;4163373;28;20599;-77
2021/07/13 04:22:29;;;;;;;8.47;6.57;;;18.20;99.90;;;;;;4164987;28;20265;-76
2021/07/13 04:24:31;;;;;;;7.47;6.10;;;18.30;99.90;;;;;;4176906;28;20204;-77
2021/07/13 04:26:32;;;;;;;8.77;6.50;;;18.30;99.90;;;;;;4180187;28;20625;-76
2021/07/13 04:28:34;;;;;;;7.03;6.33;;;18.30;99.90;;;;;;4161038;28;20258;-76
2021/07/13 04:30:37;;;;;;;9.60;6.27;;;18.30;99.90;;;;;;4162158;28;20207;-76
2021/07/13 04:32:39;;;;;;;7.70;6.40;;;18.30;99.90;;;;;;4163732;28;20215;-76
2021/07/13 04:34:41;;;;;;;10.40;6.20;;;18.30;99.90;;;;;;4164605;28;20253;-76
2021/07/13 04:36:43;;;;;;;10.27;6.60;;;18.30;99.90;;;;;;4159032;28;20212;-76
2021/07/13 04:38:45;;;;;;;9.13;6.47;;;18.30;99.90;;;;;;4164058;28;20700;-76
2021/07/13 04:40:48;;;;;;;8.73;6.23;;;18.30;99.90;;;;;;4150245;28;20669;-76
2021/07/13 04:42:49;;;;;;;8.43;6.43;;;18.30;99.90;;;;;;4155321;28;20223;-76
2021/07/13 04:44:51;;;;;;;9.30;6.33;;;18.40;99.90;;;;;;4174699;28;20215;-76
2021/07/13 04:46:54;;;;;;;8.97;6.83;;;18.40;99.90;;;;;;4175541;28;20266;-76
2021/07/13 04:48:57;;;;;;;9.23;6.47;;;18.40;99.90;;;;;;4170663;28;20238;-76
2021/07/13 04:50:58;;;;;;;8.10;5.97;;;18.40;99.90;;;;;;4175459;28;20210;-75
2021/07/13 04:53:00;;;;;;;10.33;7.03;;;18.40;99.90;;;;;;4181190;28;20208;-77
2021/07/13 04:55:02;;;;;;;9.10;6.43;;;18.40;99.90;;;;;;4174909;28;20246;-76
2021/07/13 04:57:04;;;;;;;9.77;6.23;;;18.50;99.90;;;;;;4175888;28;20269;-76
2021/07/13 04:59:06;;;;;;;8.40;6.50;;;18.50;99.90;;;;;;4173848;28;20227;-76
2021/07/13 05:01:10;;;;;;;8.07;6.30;;;18.50;99.90;;;;;;4168233;28;20631;-76
2021/07/13 05:03:13;;;;;;;8.30;6.57;;;18.50;99.90;;;;;;4169799;28;20214;-77
2021/07/13 05:05:17;;;;;;;8.23;6.43;;;18.50;99.90;;;;;;4170280;28;20211;-76
2021/07/13 05:07:19;;;;;;;9.53;6.63;;;18.60;99.90;;;;;;4164922;28;20223;-76
2021/07/13 05:09:21;;;;;;;9.37;7.13;;;18.60;99.90;;;;;;4165904;28;20333;-77
2021/07/13 05:11:22;;;;;;;8.07;6.43;;;18.60;99.90;;;;;;4165391;28;20258;-76
2021/07/13 05:13:24;;;;;;;8.80;6.53;;;18.60;99.90;;;;;;4165550;28;20253;-76
2021/07/13 05:15:26;;;;;;;7.20;6.10;;;18.60;99.90;;;;;;4173313;28;20611;-76
2021/07/13 05:17:27;;;;;;;8.57;6.67;;;18.60;99.90;;;;;;4162853;28;20211;-76
2021/07/13 05:19:32;;;;;;;7.53;5.90;;;18.70;99.90;;;;;;4159827;28;20236;-76
2021/07/13 05:21:33;;;;;;;7.73;5.80;;;18.70;99.90;;;;;;4165297;28;20218;-76
2021/07/13 05:23:35;;;;;;;8.90;6.47;;;18.70;99.90;;;;;;4163158;28;20220;-76
2021/07/13 05:25:38;;;;;;;9.00;6.33;;;18.70;99.90;;;;;;4173270;28;20243;-76
2021/07/13 05:27:42;;;;;;;8.20;6.27;;;18.70;99.90;;;;;;4157922;28;20217;-77
2021/07/13 05:29:44;;;;;;;8.97;6.50;;;18.80;99.90;;;;;;4148110;28;20755;-76
2021/07/13 05:31:45;;;;;;;8.10;6.40;;;18.80;99.90;;;;;;4165381;28;20219;-77
2021/07/13 05:33:50;;;;;;;8.60;6.37;;;18.80;99.90;;;;;;4169394;28;20303;-76
2021/07/13 05:35:53;;;;;;;8.63;5.97;;;18.80;99.90;;;;;;4163966;28;20236;-76
2021/07/13 05:37:55;;;;;;;11.10;6.60;;;18.80;99.90;;;;;;4165709;28;20709;-76
2021/07/13 05:39:58;;;;;;;10.67;6.43;;;18.80;99.90;;;;;;4166549;28;20279;-76
2021/07/13 05:42:00;;;;;;;9.57;6.73;;;18.90;99.90;;;;;;4164006;28;20569;-77
2021/07/13 05:44:02;;;;;;;7.90;6.20;;;18.90;99.90;;;;;;4160071;28;20224;-76
2021/07/13 05:46:04;;;;;;;9.47;6.37;;;19.00;99.90;;;;;;4163207;28;20207;-76
2021/07/13 05:48:06;;;;;;;8.37;6.20;;;19.00;99.90;;;;;;4164582;28;20238;-77
2021/07/13 05:50:10;;;;;;;8.17;6.30;;;19.10;99.90;;;;;;4163402;28;20225;-74
2021/07/13 05:52:13;;;;;;;6.90;5.93;;;19.10;99.90;;;;;;4163260;28;20217;-74
2021/07/13 05:54:15;;;;;;;8.30;6.03;;;19.20;99.90;;;;;;4164007;28;20542;-77
2021/07/13 05:56:16;;;;;;;8.13;5.83;;;19.20;99.90;;;;;;4167343;28;20713;-77
2021/07/13 05:58:20;;;;;;;8.20;6.10;;;19.30;99.90;;;;;;4164957;28;20268;-77
2021/07/13 06:00:22;;;;;;;6.60;5.60;;;19.30;99.90;;;;;;4169516;28;20246;-77
2021/07/13 06:02:24;;;;;;;6.73;5.53;;;19.30;99.90;;;;;;4167974;28;20606;-76
2021/07/13 06:04:25;;;;;;;6.90;5.50;;;19.40;99.90;;;;;;4174374;28;20210;-77
2021/07/13 06:06:27;;;;;;;7.97;5.50;;;19.40;99.90;;;;;;4173299;28;20206;-76
2021/07/13 06:08:30;;;;;;;6.57;5.00;;;19.40;99.90;;;;;;4154967;28;20233;-76
2021/07/13 06:10:33;;;;;;;7.07;5.10;;;19.50;99.90;;;;;;4155462;28;20238;-76
2021/07/13 06:12:34;;;;;;;6.73;5.00;;;19.50;99.90;;;;;;4159461;28;20288;-76
2021/07/13 06:14:37;;;;;;;7.77;5.30;;;19.50;99.90;;;;;;4162472;28;20245;-76
2021/07/13 06:16:39;;;;;;;6.90;5.53;;;19.60;99.90;;;;;;4173163;28;20212;-76
2021/07/13 06:18:41;;;;;;;7.20;5.13;;;19.60;99.90;;;;;;4147945;28;20278;-75
2021/07/13 06:20:43;;;;;;;7.03;5.10;;;19.60;99.90;;;;;;4153717;28;20228;-76
2021/07/13 06:22:44;;;;;;;7.03;5.23;;;19.70;99.90;;;;;;4161595;28;20677;-76
2021/07/13 06:24:48;;;;;;;6.93;5.17;;;19.70;99.90;;;;;;4159564;28;20218;-76
2021/07/13 06:26:49;;;;;;;5.33;4.50;;;19.80;99.90;;;;;;4157437;28;20306;-76
2021/07/13 06:28:51;;;;;;;5.83;4.83;;;19.80;99.90;;;;;;4153606;28;20218;-75
2021/07/13 06:30:53;;;;;;;7.00;5.00;;;19.90;99.90;;;;;;4161731;28;20245;-75
2021/07/13 06:32:54;;;;;;;11.50;6.37;;;19.90;99.90;;;;;;4162712;28;20885;-75
2021/07/13 06:34:56;;;;;;;11.83;7.20;;;20.00;99.90;;;;;;4155534;28;20634;-75
2021/07/13 06:36:58;;;;;;;12.90;7.20;;;20.00;99.90;;;;;;4157068;28;21018;-76
2021/07/13 06:39:00;;;;;;;10.33;6.90;;;20.10;99.90;;;;;;4158407;28;20232;-75
2021/07/13 06:41:03;;;;;;;7.93;5.67;;;20.20;99.90;;;;;;4163755;28;20779;-75
2021/07/13 06:43:05;;;;;;;9.27;6.07;;;20.20;99.90;;;;;;4175197;28;20256;-76
2021/07/13 06:45:07;;;;;;;7.77;5.53;;;20.30;99.90;;;;;;4170885;28;20304;-76
2021/07/13 06:47:09;;;;;;;6.83;5.33;;;20.30;99.90;;;;;;4161594;28;20222;-75
2021/07/13 06:49:11;;;;;;;6.40;5.00;;;20.40;99.90;;;;;;4159161;28;20227;-75
2021/07/13 06:51:13;;;;;;;5.33;4.37;;;20.50;99.90;;;;;;4158799;28;20219;-76
2021/07/13 06:53:14;;;;;;;7.00;4.67;;;20.50;99.90;;;;;;4157780;28;20213;-76
2021/07/13 06:55:16;;;;;;;6.70;4.90;;;20.60;99.90;;;;;;4165206;28;20660;-75
2021/07/13 06:57:21;;;;;;;6.07;4.00;;;20.70;99.90;;;;;;4159291;28;20276;-75
2021/07/13 06:59:23;;;;;;;5.83;4.30;;;20.70;99.90;;;;;;4155950;28;20287;-75
2021/07/13 07:01:25;;;;;;;5.97;4.07;;;20.80;99.90;;;;;;4161088;28;20222;-75
2021/07/13 07:03:27;;;;;;;5.40;4.20;;;20.90;99.90;;;;;;4158960;28;20297;-75
2021/07/13 07:05:29;;;;;;;4.30;3.43;;;21.00;99.90;;;;;;4160965;28;20215;-75
2021/07/13 07:07:31;;;;;;;4.97;3.80;;;21.20;99.90;;;;;;4170415;28;20206;-74
2021/07/13 07:09:32;;;;;;;4.60;4.10;;;21.30;99.90;;;;;;4159497;28;20235;-76
2021/07/13 07:11:34;;;;;;;5.33;3.60;;;21.50;99.90;;;;;;4160145;28;20676;-76
2021/07/13 07:13:37;;;;;;;6.20;4.27;;;21.60;99.90;;;;;;4165626;28;20266;-75
2021/07/13 07:15:39;;;;;;;5.97;3.80;;;21.80;99.90;;;;;;4172297;28;20601;-76
2021/07/13 07:17:45;;;;;;;6.13;3.60;;;21.80;99.90;;;;;;4156756;28;20583;-76
2021/07/13 07:19:47;;;;;;;5.23;3.97;;;22.00;99.90;;;;;;4159529;28;20239;-76
2021/07/13 07:21:49;;;;;;;6.13;4.13;;;22.10;99.90;;;;;;4161200;28;20213;-76
2021/07/13 07:23:51;;;;;;;6.00;4.20;;;22.20;99.90;;;;;;4154917;28;20212;-77
2021/07/13 07:25:52;;;;;;;5.00;3.70;;;22.20;99.90;;;;;;4159760;28;20216;-76
2021/07/13 07:27:56;;;;;;;5.43;3.47;;;22.30;99.90;;;;;;4153166;28;20214;-77
2021/07/13 07:29:59;;;;;;;5.17;3.97;;;22.40;99.90;;;;;;4159693;28;20467;-77
2021/07/13 07:32:01;;;;;;;5.27;3.87;;;22.40;99.90;;;;;;4175121;28;20363;-77
2021/07/13 07:34:03;;;;;;;6.13;4.00;;;22.50;99.90;;;;;;4158296;28;20218;-75
2021/07/13 07:36:05;;;;;;;5.47;3.83;;;22.50;99.90;;;;;;4162268;28;20269;-75
2021/07/13 07:38:07;;;;;;;6.47;4.60;;;22.50;99.90;;;;;;4158948;28;20733;-75
2021/07/13 07:40:10;;;;;;;4.90;4.10;;;22.60;99.90;;;;;;4167370;28;20241;-75
2021/07/13 07:42:12;;;;;;;6.33;4.03;;;22.60;99.90;;;;;;4175138;28;20209;-76
2021/07/13 07:44:14;;;;;;;4.87;4.03;;;22.70;99.90;;;;;;4175604;28;20277;-76
2021/07/13 07:46:17;;;;;;;5.23;4.27;;;22.70;99.90;;;;;;4162316;28;20643;-75
2021/07/13 07:48:19;;;;;;;4.40;4.00;;;22.80;99.90;;;;;;4171745;28;20262;-75
2021/07/13 07:50:22;;;;;;;5.70;4.30;;;22.80;99.90;;;;;;4163803;28;20747;-76
2021/07/13 07:52:24;;;;;;;5.73;4.43;;;22.90;99.90;;;;;;4153262;28;20217;-75
2021/07/13 07:54:27;;;;;;;6.33;4.20;;;23.00;99.90;;;;;;4156371;28;20218;-76
2021/07/13 07:56:28;;;;;;;5.00;4.13;;;23.10;99.90;;;;;;4164584;28;20214;-77
2021/07/13 07:58:30;;;;;;;4.67;4.13;;;23.20;99.90;;;;;;4159947;28;20702;-76
2021/07/13 08:00:32;;;;;;;4.57;3.97;;;23.30;99.90;;;;;;4164709;28;20266;-75
2021/07/13 08:02:35;;;;;;;6.10;4.27;;;23.40;99.90;;;;;;4163447;28;20236;-75
2021/07/13 08:04:37;;;;;;;5.67;4.10;;;23.50;99.90;;;;;;4167785;28;20214;-76
2021/07/13 08:06:38;;;;;;;6.10;4.30;;;23.70;99.90;;;;;;4170407;28;20207;-76
2021/07/13 08:08:40;;;;;;;5.40;4.60;;;23.80;99.90;;;;;;4161192;28;20207;-76
2021/07/13 08:10:42;;;;;;;5.37;4.10;;;23.90;99.90;;;;;;4169696;28;20221;-75
2021/07/13 08:12:44;;;;;;;4.50;3.80;;;24.10;99.40;;;;;;4155224;28;20281;-75
2021/07/13 08:14:45;;;;;;;4.17;3.63;;;24.20;99.30;;;;;;4171061;28;20277;-76
2021/07/13 08:16:49;;;;;;;7.27;4.20;;;24.40;98.80;;;;;;4170228;28;20207;-76
2021/07/13 08:18:52;;;;;;;5.53;4.37;;;24.50;98.60;;;;;;4162576;28;20246;-75
2021/07/13 08:20:54;;;;;;;4.77;3.57;;;24.70;98.40;;;;;;4162350;28;20230;-76
2021/07/13 08:22:56;;;;;;;7.20;4.20;;;24.80;98.00;;;;;;4162051;28;20273;-75
2021/07/13 08:24:59;;;;;;;3.77;3.40;;;24.90;97.60;;;;;;4159994;28;20481;-76
2021/07/13 08:27:02;;;;;;;3.47;2.83;;;25.00;97.40;;;;;;4161401;28;20335;-75
2021/07/13 08:29:04;;;;;;;3.20;2.90;;;25.10;96.50;;;;;;4160900;28;20234;-76
2021/07/13 08:31:06;;;;;;;3.60;3.07;;;25.20;95.80;;;;;;4162502;28;20206;-75
2021/07/13 08:33:08;;;;;;;3.33;3.00;;;25.40;94.70;;;;;;4158312;28;20249;-76
2021/07/13 08:35:12;;;;;;;2.87;2.57;;;25.50;94.60;;;;;;4167555;28;20267;-75
2021/07/13 08:37:14;;;;;;;3.23;2.80;;;25.60;93.70;;;;;;4148416;28;20212;-75
2021/07/13 08:39:15;;;;;;;2.80;2.17;;;25.80;93.20;;;;;;4157071;28;20243;-76
2021/07/13 08:41:20;;;;;;;2.10;1.90;;;25.90;92.40;;;;;;4174179;28;20237;-76
2021/07/13 08:43:24;;;;;;;3.00;2.23;;;26.10;92.60;;;;;;4178529;28;20703;-75
2021/07/13 08:45:26;;;;;;;2.43;2.23;;;26.20;92.50;;;;;;4166621;28;20272;-75
2021/07/13 08:47:27;;;;;;;3.10;2.67;;;26.30;92.60;;;;;;4168795;28;20214;-76
2021/07/13 08:49:29;;;;;;;3.03;2.33;;;26.30;91.90;;;;;;4168870;28;20281;-76
2021/07/13 08:51:33;;;;;;;2.50;2.30;;;26.40;91.90;;;;;;4165047;28;20272;-76
2021/07/13 08:53:35;;;;;;;3.10;2.77;;;26.40;91.90;;;;;;4162191;28;20246;-75
2021/07/13 08:55:37;;;;;;;2.37;2.17;;;26.50;92.10;;;;;;4161337;28;20222;-75
2021/07/13 08:57:39;;;;;;;2.80;2.40;;;26.60;91.60;;;;;;4167876;28;20680;-77
2021/07/13 08:59:41;;;;;;;2.77;2.57;;;26.60;92.40;;;;;;4166138;28;20285;-76
2021/07/13 09:01:43;;;;;;;2.90;2.47;;;26.70;92.20;;;;;;4162529;28;20214;-76
2021/07/13 09:03:54;;;;;;;2.60;2.40;;;26.70;91.60;;;;;;4158801;28;20222;-76
2021/07/13 09:05:57;;;;;;;2.50;2.30;;;26.80;91.50;;;;;;4157487;28;20781;-75
2021/07/13 09:08:11;;;;;;;2.70;2.40;;;26.80;91.00;;;;;;4174592;28;20219;-75
2021/07/13 09:10:13;;;;;;;3.20;2.60;;;26.90;90.80;;;;;;4162144;28;20315;-75
2021/07/13 09:12:17;;;;;;;3.00;2.40;;;27.00;91.60;;;;;;4169346;28;20629;-76
2021/07/13 09:14:18;;;;;;;5.33;2.47;;;27.10;91.00;;;;;;4173704;28;20211;-75
2021/07/13 09:16:24;;;;;;;2.60;2.40;;;27.20;90.10;;;;;;4169245;28;20247;-76
2021/07/13 09:18:29;;;;;;;2.87;2.57;;;27.20;90.00;;;;;;4178253;28;20198;-75
2021/07/13 09:20:32;;;;;;;3.53;2.50;;;27.30;89.40;;;;;;4177680;28;20237;-75
2021/07/13 09:22:33;;;;;;;2.40;2.20;;;27.50;89.60;;;;;;4157930;28;20280;-76
2021/07/13 09:24:36;;;;;;;3.00;2.63;;;27.60;87.70;;;;;;4161818;28;20700;-76
2021/07/13 09:26:50;;;;;;;2.60;2.40;;;27.70;89.10;;;;;;4166891;28;20206;-76
2021/07/13 09:28:52;;;;;;;3.47;2.70;;;27.80;87.90;;;;;;4147424;28;20692;-75
2021/07/13 09:30:57;;;;;;;3.23;2.60;;;27.80;86.60;;;;;;4161035;28;21032;-77
2021/07/13 09:33:15;;;;;;;2.60;2.30;;;27.80;85.30;;;;;;4157498;28;20258;-76
2021/07/13 09:35:20;;;;;;;4.00;2.47;;;27.90;84.60;;;;;;4166890;28;20301;-76
2021/07/13 09:37:25;;;;;;;3.50;2.80;;;27.90;84.80;;;;;;4166918;28;20271;-76
2021/07/13 09:39:27;;;;;;;3.13;2.60;;;27.90;85.30;;;;;;4152265;28;20247;-77
2021/07/13 09:41:30;;;;;;;3.43;2.47;;;27.90;86.20;;;;;;4143872;28;20297;-75
2021/07/13 09:43:47;;;;;;;2.87;2.50;;;27.90;85.40;;;;;;4166483;28;20235;-77
2021/07/13 09:45:49;;;;;;;3.70;2.60;;;27.80;85.20;;;;;;4161760;28;20288;-75
2021/07/13 09:47:52;;;;;;;4.70;2.40;;;27.80;86.70;;;;;;4163121;28;20214;-77
2021/07/13 09:49:54;;;;;;;2.97;2.57;;;27.80;86.90;;;;;;4161142;28;20283;-75
2021/07/13 09:51:58;;;;;;;3.40;2.70;;;27.80;87.10;;;;;;4161190;28;20977;-75
2021/07/13 09:54:02;;;;;;;3.53;2.60;;;27.70;88.30;;;;;;4171104;28;20210;-76
2021/07/13 09:56:04;;;;;;;3.37;2.73;;;27.70;88.70;;;;;;4166344;28;20254;-75
2021/07/13 09:58:19;;;;;;;3.50;2.73;;;27.60;87.60;;;;;;4160138;28;20284;-76
2021/07/13 10:00:21;;;;;;;3.27;2.97;;;27.60;88.30;;;;;;4159968;28;20748;-75
2021/07/13 10:02:26;;;;;;;4.93;3.13;;;27.60;90.00;;;;;;4159983;28;20797;-76
2021/07/13 10:04:29;;;;;;;3.93;3.13;;;27.50;90.60;;;;;;4168284;28;20219;-76
2021/07/13 10:06:32;;;;;;;3.57;3.27;;;27.50;93.20;;;;;;4171651;28;20206;-76
2021/07/13 10:08:34;;;;;;;3.97;3.53;;;27.50;91.40;;;;;;4162297;28;20219;-75
2021/07/13 10:10:39;;;;;;;4.00;3.43;;;27.40;90.50;;;;;;4174212;28;20203;-76
2021/07/13 10:12:42;;;;;;;4.20;3.80;;;27.40;90.50;;;;;;4160394;28;20242;-76
2021/07/13 10:14:47;;;;;;;4.33;3.77;;;27.40;91.00;;;;;;4167700;28;20983;-76
2021/07/13 10:16:49;;;;;;;6.00;3.90;;;27.40;93.10;;;;;;4156303;28;20211;-76
2021/07/13 10:18:50;;;;;;;4.37;3.73;;;27.50;92.60;;;;;;4153598;28;20273;-76
2021/07/13 10:20:54;;;;;;;4.27;3.87;;;27.50;93.00;;;;;;4156604;28;20230;-76
2021/07/13 10:22:58;;;;;;;4.47;4.03;;;27.50;92.80;;;;;;4157333;28;20273;-76
2021/07/13 10:25:00;;;;;;;6.13;4.90;;;27.50;93.40;;;;;;4160205;28;20210;-76
2021/07/13 10:27:03;;;;;;;4.90;4.40;;;27.60;92.60;;;;;;4161624;28;20281;-76
2021/07/13 10:29:40;;;;;;;4.97;4.30;;;27.60;92.20;;;;;;4165978;28;20300;-76
2021/07/13 10:31:41;;;;;;;5.07;4.57;;;27.70;91.70;;;;;;4161664;28;20217;-76
2021/07/13 10:33:46;;;;;;;5.10;4.37;;;27.90;91.40;;;;;;4163033;28;20246;-76
2021/07/13 10:35:48;;;;;;;5.63;4.37;;;28.00;91.10;;;;;;4155690;28;20215;-77
2021/07/13 10:37:50;;;;;;;5.70;4.47;;;28.10;90.30;;;;;;4160971;28;20215;-76
2021/07/13 10:39:51;;;;;;;5.37;4.43;;;28.20;90.10;;;;;;4155382;28;20243;-76